createdAt,value
2022-12-29T00:02:19.583Z,9.28
2022-12-29T00:04:46.051Z,9.31
2022-12-29T00:07:12.820Z,9.36
2022-12-29T00:09:39.293Z,9.36
2022-12-29T00:12:06.122Z,9.36
2022-12-29T00:14:51.061Z,9.37
2022-12-29T00:17:17.517Z,9.40
2022-12-29T00:20:03.531Z,9.43
2022-12-29T00:22:48.470Z,9.45
2022-12-29T00:25:33.574Z,9.43
2022-12-29T00:28:18.632Z,9.44
2022-12-29T00:31:03.640Z,9.46
2022-12-29T00:33:50.577Z,9.47
2022-12-29T00:36:28.548Z,9.45
2022-12-29T00:39:20.395Z,9.46
2022-12-29T00:42:09.030Z,9.49
2022-12-29T00:44:35.515Z,9.51
2022-12-29T00:47:05.393Z,9.53
2022-12-29T00:49:32.431Z,9.52
2022-12-29T00:52:23.579Z,9.52
2022-12-29T00:54:50.086Z,9.50
2022-12-29T00:57:16.562Z,9.50
2022-12-29T00:59:44.815Z,9.49
2022-12-29T01:02:11.822Z,9.48
2022-12-29T01:04:38.711Z,9.49
2022-12-29T01:07:05.547Z,9.51
2022-12-29T01:09:51.750Z,9.49
2022-12-29T01:12:38.259Z,9.46
2022-12-29T01:15:05.831Z,9.42
2022-12-29T01:17:32.203Z,9.42
2022-12-29T01:19:58.643Z,9.41
2022-12-29T01:22:25.036Z,9.38
2022-12-29T01:24:51.480Z,9.35
2022-12-29T01:27:18.014Z,9.32
2022-12-29T01:29:44.619Z,9.27
2022-12-29T01:32:11.124Z,9.28
2022-12-29T01:34:37.557Z,9.28
2022-12-29T01:37:03.955Z,9.24
2022-12-29T01:39:30.469Z,9.22
2022-12-29T01:41:56.914Z,9.20
2022-12-29T01:44:50.120Z,9.22
2022-12-29T01:47:24.317Z,9.22
2022-12-29T01:49:54.312Z,9.20
2022-12-29T01:52:20.758Z,9.17
2022-12-29T01:54:54.048Z,9.19
2022-12-29T01:57:25.201Z,9.18
2022-12-29T01:59:57.486Z,9.17
2022-12-29T02:02:25.644Z,9.18
2022-12-29T02:04:54.675Z,9.17
2022-12-29T02:07:25.605Z,9.18
2022-12-29T02:09:54.188Z,9.17
2022-12-29T02:12:23.878Z,9.16
2022-12-29T02:14:56.728Z,9.16
2022-12-29T02:17:44.933Z,9.17
2022-12-29T02:20:32.956Z,9.16
2022-12-29T02:23:34.536Z,9.17
2022-12-29T02:26:17.284Z,9.14
2022-12-29T02:29:04.912Z,9.14
2022-12-29T02:31:59.033Z,9.15
2022-12-29T02:34:41.950Z,9.15
2022-12-29T02:37:20.849Z,9.13
2022-12-29T02:40:17.380Z,9.10
2022-12-29T02:43:28.980Z,9.08
2022-12-29T02:46:05.701Z,9.04
2022-12-29T02:48:40.675Z,9.03
2022-12-29T02:51:25.056Z,9.02
2022-12-29T02:54:11.895Z,9.00
2022-12-29T02:56:38.409Z,9.00
2022-12-29T02:59:05.717Z,9.01
2022-12-29T03:01:38.164Z,9.03
2022-12-29T03:04:14.304Z,9.04
2022-12-29T03:07:12.217Z,9.02
2022-12-29T03:09:57.565Z,8.97
2022-12-29T03:13:07.597Z,8.97
2022-12-29T03:16:06.686Z,8.96
2022-12-29T03:18:57.364Z,8.90
2022-12-29T03:22:11.413Z,8.85
2022-12-29T03:24:43.077Z,8.85
2022-12-29T03:27:14.567Z,8.85
2022-12-29T03:29:47.001Z,8.88
2022-12-29T03:32:16.191Z,8.91
2022-12-29T03:34:46.096Z,8.84
2022-12-29T03:37:16.086Z,8.79
2022-12-29T03:39:45.362Z,8.75
2022-12-29T03:42:16.354Z,8.72
2022-12-29T03:44:45.963Z,8.68
2022-12-29T03:47:14.078Z,8.66
2022-12-29T03:49:40.974Z,8.69
2022-12-29T03:52:07.437Z,8.68
2022-12-29T03:54:34.028Z,8.67
2022-12-29T03:57:00.674Z,8.64
2022-12-29T03:59:27.114Z,8.61
2022-12-29T04:01:53.914Z,8.58
2022-12-29T04:04:20.446Z,8.58
2022-12-29T04:06:46.899Z,8.55
2022-12-29T04:09:13.445Z,8.50
2022-12-29T04:11:39.970Z,8.48
2022-12-29T04:14:06.601Z,8.47
2022-12-29T04:16:36.541Z,8.49
2022-12-29T04:19:03.663Z,8.47
2022-12-29T04:21:30.137Z,8.47
2022-12-29T04:23:56.647Z,8.47
2022-12-29T04:26:23.201Z,8.47
2022-12-29T04:28:49.718Z,8.47
2022-12-29T04:31:16.218Z,8.48
2022-12-29T04:33:42.716Z,8.49
2022-12-29T04:36:09.853Z,8.52
2022-12-29T04:38:36.717Z,8.50
2022-12-29T04:41:04.182Z,8.48
2022-12-29T04:43:30.752Z,8.46
2022-12-29T04:45:57.324Z,8.46
2022-12-29T04:48:23.817Z,8.40
2022-12-29T04:50:50.732Z,8.37
2022-12-29T04:53:18.502Z,8.38
2022-12-29T04:55:45.458Z,8.40
2022-12-29T04:58:14.156Z,8.40
2022-12-29T05:00:44.072Z,8.37
2022-12-29T05:03:11.051Z,8.34
2022-12-29T05:05:37.714Z,8.34
2022-12-29T05:08:04.455Z,8.36
2022-12-29T05:10:30.887Z,8.37
2022-12-29T05:12:59.184Z,8.39
2022-12-29T05:15:25.751Z,8.38
2022-12-29T05:17:52.336Z,8.35
2022-12-29T05:20:19.294Z,8.31
2022-12-29T05:22:46.109Z,8.29
2022-12-29T05:25:12.574Z,8.27
2022-12-29T05:27:39.603Z,8.25
2022-12-29T05:30:06.731Z,8.24
2022-12-29T05:32:34.195Z,8.27
2022-12-29T05:35:00.725Z,8.28
2022-12-29T05:37:28.222Z,8.27
2022-12-29T05:39:54.972Z,8.27
2022-12-29T05:42:21.431Z,8.25
2022-12-29T05:44:51.130Z,8.28
2022-12-29T05:47:19.176Z,8.26
2022-12-29T05:49:47.921Z,8.27
2022-12-29T05:52:14.366Z,8.28
2022-12-29T05:54:41.026Z,8.27
2022-12-29T05:57:07.921Z,8.27
2022-12-29T05:59:34.331Z,8.26
2022-12-29T06:02:00.905Z,8.27
2022-12-29T06:04:27.636Z,8.27
2022-12-29T06:06:54.027Z,8.23
2022-12-29T06:09:20.489Z,8.27
2022-12-29T06:11:46.864Z,8.29
2022-12-29T06:14:13.357Z,8.25
2022-12-29T06:16:40.042Z,8.20
2022-12-29T06:19:06.468Z,8.13
2022-12-29T06:21:33.531Z,8.11
2022-12-29T06:24:00.005Z,8.10
2022-12-29T06:26:26.514Z,8.05
2022-12-29T06:28:52.970Z,8.07
2022-12-29T06:31:19.559Z,8.04
2022-12-29T06:33:49.664Z,8.02
2022-12-29T06:36:16.674Z,7.98
2022-12-29T06:38:44.188Z,7.95
2022-12-29T06:41:10.649Z,7.88
2022-12-29T06:43:39.190Z,7.87
2022-12-29T06:46:06.536Z,7.86
2022-12-29T06:48:33.155Z,7.85
2022-12-29T06:50:59.602Z,7.84
2022-12-29T06:53:26.111Z,7.83
2022-12-29T06:55:52.708Z,7.83
2022-12-29T06:58:19.673Z,7.82
2022-12-29T07:00:46.187Z,7.84
2022-12-29T07:03:21.628Z,7.83
2022-12-29T07:05:48.094Z,7.83
2022-12-29T07:08:16.120Z,7.80
2022-12-29T07:10:43.883Z,7.81
2022-12-29T07:13:10.335Z,7.74
2022-12-29T07:15:39.972Z,7.66
2022-12-29T07:18:07.645Z,7.58
2022-12-29T07:20:34.315Z,7.52
2022-12-29T07:23:01.207Z,7.46
2022-12-29T07:25:27.666Z,7.39
2022-12-29T07:27:58.070Z,7.37
2022-12-29T07:30:24.570Z,7.28
2022-12-29T07:32:50.975Z,7.22
2022-12-29T07:35:19.777Z,7.16
2022-12-29T07:37:46.278Z,7.12
2022-12-29T07:40:13.726Z,7.07
2022-12-29T07:42:40.741Z,7.09
2022-12-29T07:45:08.162Z,7.12
2022-12-29T07:47:34.606Z,7.12
2022-12-29T07:50:01.151Z,7.15
2022-12-29T07:52:27.582Z,7.18
2022-12-29T07:54:54.077Z,7.23
2022-12-29T07:57:22.249Z,7.25
2022-12-29T07:59:51.561Z,7.31
2022-12-29T08:02:18.151Z,7.35
2022-12-29T08:04:45.064Z,7.36
2022-12-29T08:07:11.489Z,7.37
2022-12-29T08:09:37.941Z,7.41
2022-12-29T08:12:04.724Z,7.46
2022-12-29T08:14:31.311Z,7.47
2022-12-29T08:16:57.888Z,7.48
2022-12-29T08:19:24.397Z,7.53
2022-12-29T08:21:51.195Z,7.54
2022-12-29T08:24:17.880Z,7.56
2022-12-29T08:26:44.577Z,7.59
2022-12-29T08:29:11.084Z,7.61
2022-12-29T08:31:37.678Z,7.62
2022-12-29T08:34:06.917Z,7.67
2022-12-29T08:36:33.412Z,7.69
2022-12-29T08:39:00.015Z,7.73
2022-12-29T08:41:30.371Z,7.74
2022-12-29T08:44:16.917Z,7.73
2022-12-29T08:46:44.494Z,7.76
2022-12-29T08:49:11.070Z,7.75
2022-12-29T08:51:37.676Z,7.81
2022-12-29T08:54:04.387Z,7.80
2022-12-29T08:56:31.030Z,7.82
2022-12-29T08:58:57.515Z,7.79
2022-12-29T09:01:24.201Z,7.77
2022-12-29T09:06:40.573Z,7.86
2022-12-29T09:09:07.376Z,7.90
2022-12-29T09:11:33.846Z,7.92
2022-12-29T09:14:01.267Z,7.94
2022-12-29T09:16:28.194Z,7.95
2022-12-29T09:18:55.045Z,7.96
2022-12-29T09:21:22.058Z,7.97
2022-12-29T09:23:49.345Z,8.02
2022-12-29T09:26:15.909Z,8.00
2022-12-29T09:28:46.938Z,8.00
2022-12-29T09:31:14.405Z,7.97
2022-12-29T09:33:41.472Z,7.95
2022-12-29T09:36:09.150Z,7.89
2022-12-29T09:38:35.628Z,7.86
2022-12-29T09:41:18.605Z,7.83
2022-12-29T09:44:14.310Z,7.78
2022-12-29T09:46:54.859Z,7.76
2022-12-29T09:49:27.901Z,7.73
2022-12-29T09:52:00.958Z,7.69
2022-12-29T09:54:40.108Z,7.67
2022-12-29T09:57:16.619Z,7.67
2022-12-29T09:59:46.087Z,7.67
2022-12-29T10:02:50.984Z,7.70
2022-12-29T10:05:26.154Z,7.69
2022-12-29T10:08:17.492Z,7.69
2022-12-29T10:10:53.075Z,7.71
2022-12-29T10:13:42.761Z,7.74
2022-12-29T10:16:32.630Z,7.74
2022-12-29T10:19:23.055Z,7.78
2022-12-29T10:22:04.744Z,7.78
2022-12-29T10:24:35.047Z,7.76
2022-12-29T10:27:02.227Z,7.78
2022-12-29T10:29:34.959Z,7.86
2022-12-29T10:32:06.836Z,7.88
2022-12-29T10:34:46.343Z,7.85
2022-12-29T10:37:38.497Z,7.82
2022-12-29T10:40:19.704Z,7.83
2022-12-29T10:42:53.044Z,7.84
2022-12-29T10:45:23.009Z,7.87
2022-12-29T10:48:07.302Z,7.84
2022-12-29T10:50:34.275Z,7.85
2022-12-29T10:53:19.159Z,7.90
2022-12-29T10:55:46.974Z,7.92
2022-12-29T10:58:15.807Z,7.93
2022-12-29T11:00:44.046Z,7.91
2022-12-29T11:03:37.549Z,7.91
2022-12-29T11:06:16.823Z,7.91
2022-12-29T11:08:53.848Z,7.90
2022-12-29T11:11:33.083Z,7.91
2022-12-29T11:14:25.810Z,7.92
2022-12-29T11:17:00.789Z,7.91
2022-12-29T11:19:30.372Z,7.94
2022-12-29T11:22:14.031Z,7.98
2022-12-29T11:24:49.132Z,8.06
2022-12-29T11:27:23.676Z,8.16
2022-12-29T11:29:52.273Z,8.24
2022-12-29T11:32:27.905Z,8.33
2022-12-29T11:34:57.067Z,8.29
2022-12-29T11:37:39.911Z,8.27
2022-12-29T11:40:18.039Z,8.19
2022-12-29T11:42:57.904Z,8.12
2022-12-29T11:45:27.452Z,8.06
2022-12-29T11:48:01.192Z,7.99
2022-12-29T11:50:32.288Z,7.98
2022-12-29T11:53:07.270Z,8.08
2022-12-29T11:55:34.354Z,8.10
2022-12-29T11:58:05.196Z,8.11
2022-12-29T12:00:41.234Z,8.07
2022-12-29T12:03:28.035Z,8.03
2022-12-29T12:06:02.531Z,8.02
2022-12-29T12:08:38.116Z,7.93
2022-12-29T12:11:15.702Z,7.89
2022-12-29T12:14:07.853Z,7.88
2022-12-29T12:16:59.947Z,7.86
2022-12-29T12:19:56.028Z,7.89
2022-12-29T12:22:32.276Z,7.94
2022-12-29T12:25:14.171Z,7.98
2022-12-29T12:27:51.879Z,7.99
2022-12-29T12:30:21.689Z,8.02
2022-12-29T12:32:51.109Z,8.06
2022-12-29T12:35:28.258Z,8.10
2022-12-29T12:38:19.602Z,8.18
2022-12-29T12:41:14.384Z,8.17
2022-12-29T12:44:01.324Z,8.21
2022-12-29T12:46:57.436Z,8.25
2022-12-29T12:49:42.892Z,8.28
2022-12-29T12:52:40.853Z,8.28
2022-12-29T12:55:19.631Z,8.34
2022-12-29T12:58:01.408Z,8.34
2022-12-29T13:00:35.100Z,8.33
2022-12-29T13:03:24.583Z,8.35
2022-12-29T13:06:07.209Z,8.32
2022-12-29T13:09:18.288Z,8.34
2022-12-29T13:12:18.438Z,8.30
2022-12-29T13:14:57.370Z,8.33
2022-12-29T13:17:31.494Z,8.33
2022-12-29T13:20:16.479Z,8.29
2022-12-29T13:23:20.519Z,8.31
2022-12-29T13:26:26.435Z,8.25
2022-12-29T13:29:24.547Z,8.26
2022-12-29T13:32:03.573Z,8.24
2022-12-29T13:34:41.973Z,8.20
2022-12-29T13:37:16.589Z,8.16
2022-12-29T13:39:53.627Z,8.17
2022-12-29T13:42:20.752Z,8.18
2022-12-29T13:44:51.845Z,8.16
2022-12-29T13:47:34.337Z,8.16
2022-12-29T13:50:04.500Z,8.16
2022-12-29T13:53:26.619Z,8.17
2022-12-29T13:55:57.380Z,8.15
2022-12-29T13:59:15.911Z,8.16
2022-12-29T14:02:11.348Z,8.12
2022-12-29T14:05:22.240Z,8.11
2022-12-29T14:07:50.691Z,8.06
2022-12-29T14:10:56.623Z,8.03
2022-12-29T14:13:26.086Z,8.03
2022-12-29T14:15:55.824Z,7.96
2022-12-29T14:18:25.256Z,7.93
2022-12-29T14:20:57.953Z,7.87
2022-12-29T14:23:38.993Z,7.83
2022-12-29T14:26:05.627Z,7.78
2022-12-29T14:28:39.767Z,7.74
2022-12-29T14:31:31.873Z,7.70
2022-12-29T14:34:06.828Z,7.63
2022-12-29T14:36:43.867Z,7.57
2022-12-29T14:39:42.246Z,7.52
2022-12-29T14:42:13.927Z,7.48
2022-12-29T14:44:52.791Z,7.43
2022-12-29T14:47:35.346Z,7.39
2022-12-29T14:50:30.877Z,7.32
2022-12-29T14:53:04.113Z,7.32
2022-12-29T14:55:50.860Z,7.28
2022-12-29T14:58:22.350Z,7.28
2022-12-29T15:00:49.883Z,7.28
2022-12-29T15:03:46.395Z,7.27
2022-12-29T15:06:17.908Z,7.27
2022-12-29T15:09:00.515Z,7.27
2022-12-29T15:11:52.955Z,7.27
2022-12-29T15:14:41.198Z,7.26
2022-12-29T15:17:31.954Z,7.27
2022-12-29T15:20:00.744Z,7.28
2022-12-29T15:22:28.413Z,7.29
2022-12-29T15:24:56.777Z,7.30
2022-12-29T15:27:27.803Z,7.28
2022-12-29T15:30:21.647Z,7.30
2022-12-29T15:32:49.795Z,7.33
2022-12-29T15:35:35.641Z,7.33
2022-12-29T15:38:16.778Z,7.34
2022-12-29T15:40:45.942Z,7.34
2022-12-29T15:43:39.465Z,7.36
2022-12-29T15:46:08.676Z,7.37
2022-12-29T15:48:36.463Z,7.36
2022-12-29T15:51:03.054Z,7.38
2022-12-29T15:54:05.830Z,7.34
2022-12-29T15:56:37.454Z,7.35
2022-12-29T15:59:03.906Z,7.34
2022-12-29T16:01:35.833Z,7.35
2022-12-29T16:04:07.819Z,7.34
2022-12-29T16:06:46.276Z,7.34
2022-12-29T16:09:18.451Z,7.33
2022-12-29T16:12:03.108Z,7.34
2022-12-29T16:14:45.493Z,7.30
2022-12-29T16:17:34.246Z,7.29
2022-12-29T16:20:04.127Z,7.29
2022-12-29T16:22:39.847Z,7.28
2022-12-29T16:25:32.632Z,7.28
2022-12-29T16:28:00.766Z,7.27
2022-12-29T16:30:43.283Z,7.27
2022-12-29T16:33:37.800Z,7.23
2022-12-29T16:36:23.479Z,7.20
2022-12-29T16:38:52.347Z,7.17
2022-12-29T16:41:32.202Z,7.14
2022-12-29T16:44:18.114Z,7.12
2022-12-29T16:47:02.985Z,7.07
2022-12-29T16:49:32.265Z,7.02
2022-12-29T16:51:59.007Z,6.93
2022-12-29T16:54:36.039Z,6.85
2022-12-29T16:57:02.963Z,6.76
2022-12-29T16:59:48.504Z,6.71
2022-12-29T17:02:19.049Z,6.63
2022-12-29T17:04:49.374Z,6.57
2022-12-29T17:07:25.390Z,6.54
2022-12-29T17:09:54.209Z,6.51
2022-12-29T17:12:30.409Z,6.45
2022-12-29T17:15:14.339Z,6.43
2022-12-29T17:17:43.482Z,6.38
2022-12-29T17:20:21.420Z,6.38
2022-12-29T17:22:48.589Z,6.34
2022-12-29T17:25:19.775Z,6.34
2022-12-29T17:27:55.534Z,6.31
2022-12-29T17:30:29.715Z,6.28
2022-12-29T17:33:03.195Z,6.27
2022-12-29T17:35:29.806Z,6.23
2022-12-29T17:37:56.294Z,6.21
2022-12-29T17:40:28.786Z,6.14
2022-12-29T17:42:57.428Z,6.15
2022-12-29T17:45:39.133Z,6.12
2022-12-29T17:48:12.716Z,6.12
2022-12-29T17:50:39.159Z,6.10
2022-12-29T17:53:15.949Z,6.07
2022-12-29T17:55:42.815Z,6.08
2022-12-29T17:58:19.920Z,6.05
2022-12-29T18:01:03.502Z,5.99
2022-12-29T18:03:35.829Z,5.97
2022-12-29T18:06:06.492Z,5.98
2022-12-29T18:08:34.888Z,5.95
2022-12-29T18:11:02.038Z,5.91
2022-12-29T18:13:41.947Z,5.90
2022-12-29T18:16:15.851Z,5.84
2022-12-29T18:18:42.725Z,5.83
2022-12-29T18:21:16.961Z,5.79
2022-12-29T18:23:44.104Z,5.77
2022-12-29T18:26:23.718Z,5.79
2022-12-29T18:28:53.887Z,5.77
2022-12-29T18:31:30.814Z,5.73
2022-12-29T18:34:04.022Z,5.70
2022-12-29T18:36:33.231Z,5.69
2022-12-29T18:38:59.769Z,5.71
2022-12-29T18:41:30.382Z,5.70
2022-12-29T18:43:58.036Z,5.68
2022-12-29T18:46:24.658Z,5.67
2022-12-29T18:48:58.037Z,5.65
2022-12-29T18:51:27.422Z,5.68
2022-12-29T18:53:58.415Z,5.66
2022-12-29T18:56:40.196Z,5.69
2022-12-29T18:59:06.682Z,5.68
2022-12-29T19:01:34.854Z,5.70
2022-12-29T19:04:03.579Z,5.68
2022-12-29T19:06:30.035Z,5.68
2022-12-29T19:08:58.899Z,5.67
2022-12-29T19:11:26.074Z,5.68
2022-12-29T19:13:52.501Z,5.68
2022-12-29T19:16:21.788Z,5.70
2022-12-29T19:19:04.068Z,5.71
2022-12-29T19:21:40.112Z,5.73
2022-12-29T19:24:06.921Z,5.71
2022-12-29T19:26:40.306Z,5.71
2022-12-29T19:29:14.479Z,5.69
2022-12-29T19:31:40.994Z,5.69
2022-12-29T19:34:13.071Z,5.70
2022-12-29T19:36:41.491Z,5.70
2022-12-29T19:41:50.390Z,5.71
2022-12-29T19:46:47.717Z,5.68
2022-12-29T19:49:14.241Z,5.62
2022-12-29T19:51:40.720Z,5.58
2022-12-29T19:54:10.189Z,5.59
2022-12-29T19:56:37.981Z,5.59
2022-12-29T19:59:06.759Z,5.58
2022-12-29T20:01:53.377Z,5.58
2022-12-29T20:04:19.948Z,5.63
2022-12-29T20:06:53.905Z,5.61
2022-12-29T20:14:43.197Z,5.54
2022-12-29T20:18:02.267Z,5.55
2022-12-29T20:20:21.117Z,5.50
2022-12-29T20:23:14.908Z,5.45
2022-12-29T20:25:57.290Z,5.43
2022-12-29T20:28:27.556Z,5.40
2022-12-29T20:31:07.739Z,5.42
2022-12-29T20:33:54.291Z,5.37
2022-12-29T20:39:08.343Z,5.39
2022-12-29T20:41:35.432Z,5.37
2022-12-29T20:44:01.943Z,5.41
2022-12-29T20:46:35.065Z,5.45
2022-12-29T20:49:08.045Z,5.51
2022-12-29T20:52:03.992Z,5.58
2022-12-29T20:54:24.707Z,5.62
2022-12-29T20:57:11.472Z,5.62
2022-12-29T20:59:38.099Z,5.66
2022-12-29T21:02:04.843Z,5.69
2022-12-29T21:05:13.535Z,5.69
2022-12-29T21:07:50.792Z,5.72
2022-12-29T21:10:17.890Z,5.78
2022-12-29T21:12:48.508Z,5.79
2022-12-29T21:15:15.641Z,5.82
2022-12-29T21:17:43.985Z,5.83
2022-12-29T21:20:21.833Z,5.85
2022-12-29T21:22:50.974Z,5.81
2022-12-29T21:25:17.696Z,5.81
2022-12-29T21:27:46.420Z,5.81
2022-12-29T21:30:13.657Z,5.83
2022-12-29T21:32:41.133Z,5.81
2022-12-29T21:35:11.135Z,5.74
2022-12-29T21:37:41.433Z,5.70
2022-12-29T21:40:11.407Z,5.66
2022-12-29T21:42:38.419Z,5.60
2022-12-29T21:45:27.593Z,5.57
2022-12-29T21:48:24.514Z,5.52
2022-12-29T21:51:29.965Z,5.48
2022-12-29T21:54:19.937Z,5.48
2022-12-29T21:56:48.021Z,5.43
2022-12-29T21:59:36.433Z,5.40
2022-12-29T22:02:23.301Z,5.40
2022-12-29T22:05:08.492Z,5.38
2022-12-29T22:07:59.441Z,5.35
2022-12-29T22:10:44.931Z,5.32
2022-12-29T22:13:11.463Z,5.28
2022-12-29T22:15:58.245Z,5.27
2022-12-29T22:18:32.247Z,5.25
2022-12-29T22:21:00.101Z,5.26
2022-12-29T22:23:29.691Z,5.22
2022-12-29T22:25:56.168Z,5.16
2022-12-29T22:28:22.968Z,5.15
2022-12-29T22:30:49.464Z,5.12
2022-12-29T22:33:16.144Z,5.11
2022-12-29T22:35:42.574Z,5.08
2022-12-29T22:38:09.274Z,5.06
2022-12-29T22:40:35.718Z,5.07
2022-12-29T22:43:03.725Z,5.07
2022-12-29T22:45:32.089Z,5.06
2022-12-29T22:47:58.732Z,5.04
2022-12-29T22:50:26.234Z,5.04
2022-12-29T22:52:53.198Z,5.02
2022-12-29T22:55:19.660Z,5.04
2022-12-29T22:57:46.061Z,5.03
2022-12-29T23:00:13.296Z,5.03
2022-12-29T23:02:40.044Z,5.00
2022-12-29T23:05:07.322Z,4.99
2022-12-29T23:07:35.341Z,4.98
2022-12-29T23:10:02.781Z,5.01
2022-12-29T23:12:30.917Z,5.00
2022-12-29T23:14:57.404Z,5.02
2022-12-29T23:17:25.138Z,4.99
2022-12-29T23:19:54.608Z,4.99
2022-12-29T23:22:21.129Z,4.97
2022-12-29T23:24:51.156Z,4.97
2022-12-29T23:27:32.058Z,4.97
2022-12-29T23:29:58.494Z,4.91
2022-12-29T23:32:24.981Z,4.92
2022-12-29T23:34:51.376Z,4.89
2022-12-29T23:37:17.889Z,4.89
2022-12-29T23:39:44.268Z,4.89
2022-12-29T23:42:12.297Z,4.88
2022-12-29T23:44:38.860Z,4.86
2022-12-29T23:47:05.391Z,4.82
2022-12-29T23:49:32.094Z,4.81
2022-12-29T23:51:58.554Z,4.78
2022-12-29T23:54:25.491Z,4.78
2022-12-29T23:56:51.939Z,4.76
2022-12-29T23:59:18.365Z,4.76
